createdAt,value
2022-08-22T00:00:20.962Z,100490.75
2022-08-22T00:02:47.882Z,100418.75
2022-08-22T00:03:00.231Z,100419.13
2022-08-22T00:03:01.342Z,100436.34
2022-08-22T00:03:22.576Z,100492.62
2022-08-22T00:06:07.531Z,100489.38
2022-08-22T00:08:47.869Z,100486.25
2022-08-22T00:11:25.739Z,100489.38
2022-08-22T00:14:02.153Z,100490.38
2022-08-22T00:16:35.965Z,100483.59
2022-08-22T00:19:13.141Z,100484.16
2022-08-22T00:21:46.558Z,100490.25
2022-08-22T00:24:25.574Z,100475.84
2022-08-22T00:27:00.588Z,100483.91
2022-08-22T00:29:34.326Z,100484.34
2022-08-22T00:32:11.197Z,100482.94
2022-08-22T00:34:44.495Z,100485.91
2022-08-22T00:37:20.944Z,100490.56
2022-08-22T00:39:59.460Z,100490.03
2022-08-22T00:42:54.260Z,100487.75
2022-08-22T00:45:38.499Z,100491.28
2022-08-22T00:48:24.654Z,100487.34
2022-08-22T00:51:09.241Z,100493.97
2022-08-22T00:53:51.744Z,100494.25
2022-08-22T00:56:55.327Z,100497.25
2022-08-22T00:59:41.152Z,100495.56
2022-08-22T01:02:23.791Z,100499.50
2022-08-22T01:05:10.753Z,100493.72
2022-08-22T01:07:58.098Z,100483.25
2022-08-22T01:10:45.925Z,100494.25
2022-08-22T01:13:32.312Z,100488.19
2022-08-22T01:16:18.350Z,100490.44
2022-08-22T01:19:05.894Z,100493.38
2022-08-22T01:22:09.856Z,100485.63
2022-08-22T01:25:22.459Z,100482.94
2022-08-22T01:28:44.870Z,100486.75
2022-08-22T01:32:01.478Z,100491.53
2022-08-22T01:35:04.402Z,100486.75
2022-08-22T01:37:55.910Z,100485.31
2022-08-22T01:41:18.585Z,100485.03
2022-08-22T01:44:03.163Z,100486.03
2022-08-22T01:46:37.746Z,100488.25
2022-08-22T01:49:14.315Z,100494.75
2022-08-22T01:51:51.122Z,100493.22
2022-08-22T01:54:31.885Z,100490.53
2022-08-22T01:57:03.009Z,100489.78
2022-08-22T01:59:34.686Z,100494.44
2022-08-22T02:02:40.926Z,100489.38
2022-08-22T02:05:20.140Z,100493.47
2022-08-22T02:07:58.384Z,100488.37
2022-08-22T02:10:44.509Z,100493.59
2022-08-22T02:13:30.733Z,100479.91
2022-08-22T02:16:09.362Z,100492.47
2022-08-22T02:18:54.659Z,100494.44
2022-08-22T02:21:30.380Z,100492.91
2022-08-22T02:24:03.980Z,100488.78
2022-08-22T02:26:44.764Z,100490.88
2022-08-22T02:29:17.145Z,100487.38
2022-08-22T02:31:54.417Z,100486.94
2022-08-22T02:34:34.006Z,100482.69
2022-08-22T02:37:09.395Z,100483.66
2022-08-22T02:39:45.265Z,100481.41
2022-08-22T02:42:22.347Z,100484.94
2022-08-22T02:44:58.897Z,100484.22
2022-08-22T02:47:34.035Z,100483.50
2022-08-22T02:50:12.964Z,100485.19
2022-08-22T02:52:57.311Z,100479.72
2022-08-22T02:55:37.238Z,100480.41
2022-08-22T02:58:12.189Z,100481.41
2022-08-22T03:00:47.332Z,100482.50
2022-08-22T03:03:20.229Z,100482.66
2022-08-22T03:05:53.086Z,100482.22
2022-08-22T03:08:25.457Z,100481.63
2022-08-22T03:11:13.612Z,100485.84
2022-08-22T03:13:54.160Z,100486.19
2022-08-22T03:16:30.442Z,100489.69
2022-08-22T03:19:04.470Z,100487.00
2022-08-22T03:21:38.063Z,100496.03
2022-08-22T03:24:12.876Z,100493.50
2022-08-22T03:26:50.372Z,100484.47
2022-08-22T03:29:23.386Z,100482.50
2022-08-22T03:32:12.458Z,100484.31
2022-08-22T03:34:56.108Z,100472.22
2022-08-22T03:37:33.124Z,100477.59
2022-08-22T03:40:07.837Z,100478.72
2022-08-22T03:43:02.840Z,100479.56
2022-08-22T03:45:58.232Z,100479.56
2022-08-22T03:48:57.038Z,100489.69
2022-08-22T03:51:40.378Z,100489.81
2022-08-22T03:54:31.746Z,100493.91
2022-08-22T03:57:40.698Z,100493.91
2022-08-22T04:00:21.187Z,100490.25
2022-08-22T04:03:07.309Z,100494.16
2022-08-22T04:05:58.145Z,100485.41
2022-08-22T04:09:03.847Z,100491.03
2022-08-22T04:11:52.900Z,100500.06
2022-08-22T04:14:48.572Z,100502.03
2022-08-22T04:17:35.711Z,100502.97
2022-08-22T04:20:20.892Z,100504.09
2022-08-22T04:23:16.620Z,100504.50
2022-08-22T04:25:52.467Z,100506.34
2022-08-22T04:28:24.529Z,100508.56
2022-08-22T04:30:57.316Z,100509.53
2022-08-22T04:33:31.526Z,100512.34
2022-08-22T04:36:06.043Z,100513.19
2022-08-22T04:38:39.980Z,100520.25
2022-08-22T04:41:13.271Z,100524.38
2022-08-22T04:43:49.533Z,100520.84
2022-08-22T04:46:26.269Z,100532.44
2022-08-22T04:49:11.865Z,100526.19
2022-08-22T04:51:45.384Z,100544.00
2022-08-22T04:54:33.849Z,100542.16
2022-08-22T04:57:22.511Z,100537.25
2022-08-22T04:59:51.347Z,100534.44
2022-08-22T05:02:24.251Z,100541.63
2022-08-22T05:05:00.286Z,100549.53
2022-08-22T05:07:36.011Z,100545.63
2022-08-22T05:10:11.625Z,100549.72
2022-08-22T05:12:44.336Z,100548.59
2022-08-22T05:15:19.163Z,100556.25
2022-08-22T05:17:54.253Z,100549.63
2022-08-22T05:20:28.596Z,100559.00
2022-08-22T05:23:01.125Z,100557.53
2022-08-22T05:25:33.598Z,100557.81
2022-08-22T05:28:12.037Z,100557.03
2022-08-22T05:30:41.236Z,100568.66
2022-08-22T05:33:17.827Z,100570.66
2022-08-22T05:35:55.852Z,100569.56
2022-08-22T05:38:31.463Z,100568.63
2022-08-22T05:41:06.382Z,100566.66
2022-08-22T05:43:38.907Z,100574.75
2022-08-22T05:46:10.549Z,100572.72
2022-08-22T05:48:44.526Z,100568.91
2022-08-22T05:51:22.042Z,100569.63
2022-08-22T05:53:55.033Z,100572.75
2022-08-22T05:56:36.002Z,100573.47
2022-08-22T05:59:09.418Z,100579.22
2022-08-22T06:01:47.270Z,100582.34
2022-08-22T06:04:25.508Z,100577.53
2022-08-22T06:06:58.139Z,100581.34
2022-08-22T06:09:35.384Z,100578.31
2022-08-22T06:12:18.245Z,100585.91
2022-08-22T06:15:01.222Z,100588.28
2022-08-22T06:17:35.675Z,100587.62
2022-08-22T06:20:08.527Z,100595.25
2022-08-22T06:22:42.296Z,100595.59
2022-08-22T06:25:14.715Z,100596.78
2022-08-22T06:30:17.950Z,100595.41
2022-08-22T06:32:59.920Z,100589.50
2022-08-22T06:35:53.679Z,100597.44
2022-08-22T06:38:28.476Z,100595.22
2022-08-22T06:41:00.551Z,100603.81
2022-08-22T06:43:34.151Z,100607.34
2022-08-22T06:46:02.690Z,100600.69
2022-08-22T06:48:30.961Z,100595.03
2022-08-22T06:51:00.216Z,100605.25
2022-08-22T06:53:35.943Z,100596.84
2022-08-22T06:56:06.346Z,100594.88
2022-08-22T06:58:42.554Z,100595.22
2022-08-22T07:01:14.865Z,100606.22
2022-08-22T07:03:47.923Z,100598.66
2022-08-22T07:06:19.184Z,100598.50
2022-08-22T07:08:55.002Z,100595.78
2022-08-22T07:11:27.562Z,100605.31
2022-08-22T07:13:59.272Z,100604.44
2022-08-22T07:16:33.754Z,100597.66
2022-08-22T07:19:02.882Z,100606.09
2022-08-22T07:21:42.721Z,100611.50
2022-08-22T07:24:18.711Z,100609.59
2022-08-22T07:27:04.802Z,100606.06
2022-08-22T07:29:42.927Z,100602.97
2022-08-22T07:32:16.180Z,100600.41
2022-08-22T07:34:58.790Z,100613.00
2022-08-22T07:37:37.504Z,100602.28
2022-08-22T07:40:19.966Z,100606.13
2022-08-22T07:42:52.604Z,100608.84
2022-08-22T07:45:31.972Z,100614.53
2022-08-22T07:48:19.785Z,100613.44
2022-08-22T07:51:02.110Z,100605.00
2022-08-22T07:53:37.216Z,100610.19
2022-08-22T07:56:10.630Z,100616.56
2022-08-22T07:58:41.962Z,100614.38
2022-08-22T08:01:12.327Z,100615.88
2022-08-22T08:03:41.298Z,100614.25
2022-08-22T08:06:10.311Z,100610.03
2022-08-22T08:08:42.186Z,100610.81
2022-08-22T08:11:16.002Z,100609.00
2022-08-22T08:13:47.773Z,100606.69
2022-08-22T08:16:21.221Z,100609.84
2022-08-22T08:18:52.576Z,100610.56
2022-08-22T08:21:29.134Z,100611.91
2022-08-22T08:23:57.719Z,100603.84
2022-08-22T08:26:32.990Z,100600.03
2022-08-22T08:29:01.366Z,100603.97
2022-08-22T08:31:34.119Z,100600.84
2022-08-22T08:34:06.293Z,100602.69
2022-08-22T08:36:41.545Z,100596.34
2022-08-22T08:39:19.854Z,100602.78
2022-08-22T08:42:15.078Z,100601.09
2022-08-22T08:45:07.380Z,100598.38
2022-08-22T08:47:56.636Z,100599.63
2022-08-22T08:50:51.361Z,100599.72
2022-08-22T08:53:45.281Z,100597.97
2022-08-22T08:56:20.083Z,100603.72
2022-08-22T08:59:00.198Z,100600.09
2022-08-22T09:01:53.317Z,100603.94
2022-08-22T09:05:05.584Z,100599.78
2022-08-22T09:07:50.815Z,100605.09
2022-08-22T09:10:33.996Z,100598.47
2022-08-22T09:13:29.015Z,100604.84
2022-08-22T09:16:25.944Z,100607.44
2022-08-22T09:19:12.932Z,100613.19
2022-08-22T09:22:06.195Z,100608.97
2022-08-22T09:25:06.073Z,100607.75
2022-08-22T09:27:38.247Z,100600.59
2022-08-22T09:30:11.936Z,100607.34
2022-08-22T09:32:52.151Z,100606.06
2022-08-22T09:35:27.882Z,100599.13
2022-08-22T09:38:22.152Z,100595.38
2022-08-22T09:40:57.728Z,100586.91
2022-08-22T09:43:37.612Z,100584.34
2022-08-22T09:46:15.647Z,100595.25
2022-08-22T09:48:58.270Z,100595.63
2022-08-22T09:51:37.433Z,100598.28
2022-08-22T09:54:22.884Z,100604.75
2022-08-22T09:56:59.322Z,100593.34
2022-08-22T09:59:43.554Z,100594.94
2022-08-22T10:02:24.119Z,100596.81
2022-08-22T10:05:04.121Z,100597.53
2022-08-22T10:07:59.491Z,100600.25
2022-08-22T10:10:54.740Z,100600.56
2022-08-22T10:13:34.218Z,100601.91
2022-08-22T10:16:16.621Z,100597.00
2022-08-22T10:18:54.723Z,100600.72
2022-08-22T10:21:36.317Z,100602.63
2022-08-22T10:24:25.492Z,100601.25
2022-08-22T10:26:57.402Z,100598.41
2022-08-22T10:29:40.657Z,100601.81
2022-08-22T10:32:27.145Z,100599.91
2022-08-22T10:35:02.802Z,100597.72
2022-08-22T10:37:40.592Z,100605.53
2022-08-22T10:40:22.956Z,100604.00
2022-08-22T10:42:57.604Z,100598.22
2022-08-22T10:45:36.034Z,100605.84
2022-08-22T10:48:25.640Z,100601.12
2022-08-22T10:51:02.602Z,100603.09
2022-08-22T10:53:42.836Z,100602.25
2022-08-22T10:56:14.985Z,100596.25
2022-08-22T10:58:51.294Z,100602.72
2022-08-22T11:01:37.886Z,100596.53
2022-08-22T11:04:19.709Z,100593.03
2022-08-22T11:07:15.471Z,100591.81
2022-08-22T11:09:45.137Z,100592.13
2022-08-22T11:12:23.294Z,100591.81
2022-08-22T11:15:08.484Z,100584.88
2022-08-22T11:18:24.123Z,100582.22
2022-08-22T11:21:01.727Z,100581.53
2022-08-22T11:23:41.953Z,100580.75
2022-08-22T11:26:41.379Z,100582.69
2022-08-22T11:29:32.882Z,100588.78
2022-08-22T11:32:09.022Z,100582.69
2022-08-22T11:34:47.951Z,100577.56
2022-08-22T11:37:42.783Z,100575.28
2022-08-22T11:40:25.909Z,100576.16
2022-08-22T11:43:03.151Z,100573.06
2022-08-22T11:45:40.055Z,100579.16
2022-08-22T11:48:18.206Z,100576.75
2022-08-22T11:50:51.222Z,100582.41
2022-08-22T11:53:25.427Z,100581.62
2022-08-22T11:56:10.349Z,100571.72
2022-08-22T11:58:54.758Z,100579.47
2022-08-22T12:01:34.371Z,100566.31
2022-08-22T12:04:10.255Z,100569.09
2022-08-22T12:06:59.084Z,100571.53
2022-08-22T12:09:35.893Z,100560.19
2022-08-22T12:12:19.899Z,100558.25
2022-08-22T12:14:58.790Z,100558.25
2022-08-22T12:17:55.960Z,100559.19
2022-08-22T12:20:48.894Z,100557.53
2022-08-22T12:23:49.699Z,100551.19
2022-08-22T12:26:30.504Z,100545.84
2022-08-22T12:29:16.795Z,100548.06
2022-08-22T12:32:17.410Z,100541.25
2022-08-22T12:35:14.038Z,100542.34
2022-08-22T12:37:53.063Z,100540.25
2022-08-22T12:40:39.756Z,100525.16
2022-08-22T12:43:49.536Z,100530.25
2022-08-22T12:46:28.900Z,100530.06
2022-08-22T12:49:24.028Z,100528.94
2022-08-22T12:52:14.407Z,100518.94
2022-08-22T12:54:53.837Z,100525.44
2022-08-22T12:57:32.978Z,100512.03
2022-08-22T13:00:09.452Z,100520.25
2022-08-22T13:02:41.687Z,100514.63
2022-08-22T13:05:19.533Z,100513.81
2022-08-22T13:07:54.525Z,100512.47
2022-08-22T13:10:40.337Z,100503.34
2022-08-22T13:13:12.790Z,100504.44
2022-08-22T13:15:47.217Z,100501.03
2022-08-22T13:18:29.722Z,100502.81
2022-08-22T13:21:05.061Z,100492.78
2022-08-22T13:23:40.024Z,100506.97
2022-08-22T13:26:16.454Z,100499.47
2022-08-22T13:29:24.742Z,100497.16
2022-08-22T13:31:56.240Z,100500.88
2022-08-22T13:34:39.440Z,100498.59
2022-08-22T13:37:16.223Z,100494.47
2022-08-22T13:39:49.120Z,100496.50
2022-08-22T13:42:29.806Z,100494.03
2022-08-22T13:45:04.588Z,100494.31
2022-08-22T13:47:39.445Z,100490.09
2022-08-22T13:50:13.897Z,100486.91
2022-08-22T13:52:52.251Z,100484.37
2022-08-22T13:55:29.553Z,100491.78
2022-08-22T13:58:07.478Z,100492.09
2022-08-22T14:01:03.752Z,100492.19
2022-08-22T14:03:40.377Z,100498.06
2022-08-22T14:06:36.814Z,100489.50
2022-08-22T14:09:32.065Z,100501.41
2022-08-22T14:12:13.615Z,100493.00
2022-08-22T14:14:46.358Z,100493.91
2022-08-22T14:17:21.065Z,100500.22
2022-08-22T14:19:59.453Z,100504.09
2022-08-22T14:22:35.391Z,100492.38
2022-08-22T14:25:10.279Z,100491.59
2022-08-22T14:27:57.765Z,100487.00
2022-08-22T14:30:30.162Z,100493.72
2022-08-22T14:33:12.662Z,100488.69
2022-08-22T14:35:45.279Z,100485.16
2022-08-22T14:38:30.463Z,100484.28
2022-08-22T14:41:05.272Z,100484.06
2022-08-22T14:43:49.592Z,100487.91
2022-08-22T14:46:26.732Z,100483.12
2022-08-22T14:49:16.083Z,100489.53
2022-08-22T14:51:50.909Z,100482.25
2022-08-22T14:54:22.333Z,100483.69
2022-08-22T14:56:54.962Z,100488.69
2022-08-22T14:59:38.442Z,100480.81
2022-08-22T15:02:10.894Z,100483.09
2022-08-22T15:04:42.659Z,100490.38
2022-08-22T15:07:21.090Z,100481.53
2022-08-22T15:09:53.901Z,100487.69
2022-08-22T15:12:30.640Z,100479.78
2022-08-22T15:15:01.814Z,100483.81
2022-08-22T15:17:44.104Z,100486.28
2022-08-22T15:20:27.683Z,100484.41
2022-08-22T15:22:59.540Z,100480.84
2022-08-22T15:25:31.652Z,100482.66
2022-08-22T15:28:07.803Z,100476.69
2022-08-22T15:30:45.201Z,100476.97
2022-08-22T15:33:19.080Z,100474.97
2022-08-22T15:35:48.930Z,100474.97
2022-08-22T15:38:30.334Z,100468.53
2022-08-22T15:41:31.090Z,100477.84
2022-08-22T15:44:15.054Z,100477.56
2022-08-22T15:47:02.553Z,100477.81
2022-08-22T15:49:35.890Z,100478.34
2022-08-22T15:52:14.835Z,100472.31
2022-08-22T15:55:19.004Z,100469.53
2022-08-22T15:57:59.701Z,100473.69
2022-08-22T16:00:36.384Z,100477.78
2022-08-22T16:03:24.288Z,100468.63
2022-08-22T16:05:56.026Z,100466.72
2022-08-22T16:08:29.625Z,100468.22
2022-08-22T16:11:27.477Z,100473.59
2022-08-22T16:14:21.665Z,100478.97
2022-08-22T16:16:58.235Z,100471.53
2022-08-22T16:19:27.782Z,100474.06
2022-08-22T16:22:16.356Z,100472.84
2022-08-22T16:25:14.251Z,100471.47
2022-08-22T16:27:55.197Z,100470.03
2022-08-22T16:30:36.731Z,100467.13
2022-08-22T16:33:08.773Z,100470.06
2022-08-22T16:36:24.419Z,100466.03
2022-08-22T16:38:56.491Z,100465.84
2022-08-22T16:41:40.229Z,100463.78
2022-08-22T16:44:41.588Z,100468.81
2022-08-22T16:47:16.517Z,100466.31
2022-08-22T16:50:03.413Z,100476.00
2022-08-22T16:53:02.119Z,100470.53
2022-08-22T16:56:12.279Z,100468.03
2022-08-22T16:59:22.955Z,100470.97
2022-08-22T17:02:12.752Z,100474.34
2022-08-22T17:04:51.474Z,100483.97
2022-08-22T17:07:34.550Z,100478.09
2022-08-22T17:10:36.269Z,100483.53
2022-08-22T17:13:15.478Z,100474.06
2022-08-22T17:15:57.794Z,100477.44
2022-08-22T17:18:43.836Z,100473.22
2022-08-22T17:21:17.547Z,100470.84
2022-08-22T17:23:57.709Z,100474.19
2022-08-22T17:26:37.985Z,100466.19
2022-08-22T17:29:16.370Z,100474.53
2022-08-22T17:31:50.918Z,100471.19
2022-08-22T17:34:32.291Z,100478.47
2022-08-22T17:37:09.195Z,100474.87
2022-08-22T17:40:04.943Z,100484.47
2022-08-22T17:42:49.256Z,100490.09
2022-08-22T17:45:27.540Z,100491.72
2022-08-22T17:48:03.438Z,100495.63
2022-08-22T17:50:39.328Z,100507.72
2022-08-22T17:53:16.370Z,100502.19
2022-08-22T17:56:01.407Z,100506.75
2022-08-22T17:58:43.913Z,100508.72
2022-08-22T18:01:15.172Z,100512.00
2022-08-22T18:03:50.789Z,100511.28
2022-08-22T18:06:23.660Z,100518.75
2022-08-22T18:11:51.039Z,100518.75
2022-08-22T18:14:29.550Z,100521.47
2022-08-22T18:17:00.964Z,100526.84
2022-08-22T18:19:40.978Z,100519.25
2022-08-22T18:22:13.036Z,100525.72
2022-08-22T18:24:47.387Z,100524.63
2022-08-22T18:27:34.403Z,100517.25
2022-08-22T18:30:16.091Z,100529.91
2022-08-22T18:32:52.161Z,100522.03
2022-08-22T18:35:26.092Z,100521.34
2022-08-22T18:38:19.396Z,100530.59
2022-08-22T18:40:55.006Z,100531.22
2022-08-22T18:43:39.079Z,100533.38
2022-08-22T18:46:33.731Z,100536.00
2022-08-22T18:49:15.431Z,100541.16
2022-08-22T18:51:44.444Z,100549.37
2022-08-22T18:54:42.792Z,100550.97
2022-08-22T18:57:31.564Z,100557.78
2022-08-22T19:00:14.412Z,100563.28
2022-08-22T19:03:03.569Z,100558.94
2022-08-22T19:05:56.735Z,100556.56
2022-08-22T19:08:44.399Z,100568.00
2022-08-22T19:11:35.114Z,100562.09
2022-08-22T19:14:35.573Z,100566.56
2022-08-22T19:17:21.432Z,100569.66
2022-08-22T19:20:24.822Z,100562.59
2022-08-22T19:22:54.758Z,100562.47
2022-08-22T19:25:26.411Z,100574.19
2022-08-22T19:28:26.784Z,100573.72
2022-08-22T19:31:22.355Z,100577.66
2022-08-22T19:34:12.012Z,100572.25
2022-08-22T19:36:41.354Z,100576.69
2022-08-22T19:39:11.139Z,100577.22
2022-08-22T19:41:52.834Z,100577.75
2022-08-22T19:44:37.567Z,100574.75
2022-08-22T19:47:26.839Z,100566.94
2022-08-22T19:50:05.583Z,100568.38
2022-08-22T19:52:45.862Z,100570.06
2022-08-22T19:55:22.941Z,100576.03
2022-08-22T19:58:03.958Z,100584.19
2022-08-22T20:00:53.503Z,100575.25
2022-08-22T20:03:42.016Z,100593.88
2022-08-22T20:06:42.631Z,100582.69
2022-08-22T20:09:21.632Z,100585.28
2022-08-22T20:12:00.580Z,100584.09
2022-08-22T20:14:31.455Z,100586.63
2022-08-22T20:17:05.218Z,100588.66
2022-08-22T20:19:40.039Z,100583.44
2022-08-22T20:22:15.884Z,100575.31
2022-08-22T20:24:49.070Z,100587.34
2022-08-22T20:27:21.978Z,100585.81
2022-08-22T20:29:55.426Z,100587.84
2022-08-22T20:32:26.311Z,100587.16
2022-08-22T20:34:58.955Z,100592.94
2022-08-22T20:38:05.720Z,100592.09
2022-08-22T20:40:54.982Z,100586.16
2022-08-22T20:43:25.113Z,100586.50
2022-08-22T20:46:12.408Z,100582.78
2022-08-22T20:48:44.003Z,100584.50
2022-08-22T20:51:18.025Z,100586.69
2022-08-22T20:53:54.679Z,100580.94
2022-08-22T20:56:34.338Z,100583.31
2022-08-22T20:59:16.635Z,100582.78
2022-08-22T21:01:46.052Z,100586.50
2022-08-22T21:04:15.755Z,100584.12
2022-08-22T21:06:43.643Z,100593.25
2022-08-22T21:09:32.976Z,100595.25
2022-08-22T21:12:02.732Z,100592.22
2022-08-22T21:14:34.595Z,100596.78
2022-08-22T21:17:19.147Z,100596.44
2022-08-22T21:19:47.529Z,100598.94
2022-08-22T21:22:17.198Z,100595.53
2022-08-22T21:24:46.607Z,100596.19
2022-08-22T21:27:25.988Z,100601.22
2022-08-22T21:29:54.225Z,100601.69
2022-08-22T21:32:28.271Z,100604.41
2022-08-22T21:34:56.730Z,100604.88
2022-08-22T21:37:35.743Z,100611.09
2022-08-22T21:40:10.567Z,100612.91
2022-08-22T21:42:45.997Z,100617.56
2022-08-22T21:45:27.444Z,100615.53
2022-08-22T21:47:55.792Z,100620.25
2022-08-22T21:50:34.698Z,100611.94
2022-08-22T21:53:10.101Z,100608.22
2022-08-22T21:55:44.381Z,100617.97
2022-08-22T21:58:35.106Z,100611.03
2022-08-22T22:01:29.957Z,100614.13
2022-08-22T22:03:58.912Z,100616.66
2022-08-22T22:06:27.959Z,100623.53
2022-08-22T22:08:56.001Z,100610.19
2022-08-22T22:11:25.536Z,100607.50
2022-08-22T22:13:54.339Z,100614.75
2022-08-22T22:16:25.651Z,100614.06
2022-08-22T22:18:53.905Z,100608.00
2022-08-22T22:21:21.941Z,100611.66
2022-08-22T22:23:50.625Z,100599.06
2022-08-22T22:26:20.937Z,100594.62
2022-08-22T22:28:51.123Z,100593.22
2022-08-22T22:31:19.524Z,100599.81
2022-08-22T22:33:47.444Z,100595.41
2022-08-22T22:36:19.101Z,100603.97
2022-08-22T22:38:48.222Z,100607.00
2022-08-22T22:41:23.292Z,100606.78
2022-08-22T22:43:53.311Z,100598.16
2022-08-22T22:46:21.749Z,100603.47
2022-08-22T22:48:49.914Z,100608.97
2022-08-22T22:51:18.045Z,100616.69
2022-08-22T22:53:46.796Z,100627.09
2022-08-22T22:56:18.142Z,100625.00
2022-08-22T22:58:50.648Z,100625.31
2022-08-22T23:01:59.683Z,100614.84
2022-08-22T23:04:28.222Z,100608.78
2022-08-22T23:06:56.210Z,100613.78
2022-08-22T23:09:38.013Z,100617.63
2022-08-22T23:12:08.318Z,100624.16
2022-08-22T23:14:36.794Z,100632.53
2022-08-22T23:17:06.242Z,100633.84
2022-08-22T23:19:35.551Z,100627.34
2022-08-22T23:22:03.549Z,100630.53
2022-08-22T23:24:37.152Z,100626.87
2022-08-22T23:27:06.906Z,100626.63
2022-08-22T23:29:35.395Z,100627.09
2022-08-22T23:32:06.206Z,100615.38
2022-08-22T23:34:37.578Z,100621.22
2022-08-22T23:37:08.229Z,100627.91
2022-08-22T23:39:38.150Z,100617.59
2022-08-22T23:42:07.666Z,100632.50
2022-08-22T23:44:37.581Z,100627.84
2022-08-22T23:47:09.647Z,100633.53
2022-08-22T23:49:39.052Z,100627.59
2022-08-22T23:52:09.032Z,100628.59
2022-08-22T23:54:37.279Z,100634.09
2022-08-22T23:57:11.841Z,100636.09
2022-08-22T23:59:47.877Z,100632.53
